createdAt,value
2018-12-19T00:01:12.743Z,37.10
2018-12-19T00:03:47.564Z,29.90
2018-12-19T00:06:22.297Z,28.90
2018-12-19T00:09:03.012Z,32.03
2018-12-19T00:11:33.683Z,33.33
2018-12-19T00:14:08.474Z,31.93
2018-12-19T00:16:43.291Z,29.80
2018-12-19T00:19:17.941Z,33.63
2018-12-19T00:21:52.754Z,30.17
2018-12-19T00:24:27.369Z,28.90
2018-12-19T00:27:02.182Z,31.10
2018-12-19T00:29:36.984Z,32.83
2018-12-19T00:32:11.890Z,31.53
2018-12-19T00:34:47.135Z,33.17
2018-12-19T00:37:21.950Z,29.70
2018-12-19T00:39:57.090Z,33.47
2018-12-19T00:42:31.811Z,31.47
2018-12-19T00:45:06.951Z,28.57
2018-12-19T00:47:41.613Z,30.47
2018-12-19T00:50:16.490Z,29.73
2018-12-19T00:52:51.339Z,28.87
2018-12-19T00:55:26.290Z,28.60
2018-12-19T00:58:01.018Z,29.80
2018-12-19T01:00:36.003Z,28.83
2018-12-19T01:03:10.687Z,34.10
2018-12-19T01:05:45.538Z,28.67
2018-12-19T01:08:20.369Z,27.47
2018-12-19T01:10:55.280Z,32.60
2018-12-19T01:13:30.808Z,33.53
2018-12-19T01:16:05.672Z,33.37
2018-12-19T01:18:40.438Z,31.67
2018-12-19T01:21:15.229Z,27.83
2018-12-19T01:23:50.091Z,29.70
2018-12-19T01:26:25.107Z,30.50
2018-12-19T01:28:59.726Z,30.53
2018-12-19T01:31:34.584Z,29.40
2018-12-19T01:34:09.445Z,29.77
2018-12-19T01:36:44.417Z,30.50
2018-12-19T01:39:22.463Z,31.80
2018-12-19T01:41:56.045Z,33.57
2018-12-19T01:44:30.783Z,30.70
2018-12-19T01:47:05.778Z,30.80
2018-12-19T01:49:40.642Z,34.23
2018-12-19T01:52:15.584Z,31.23
2018-12-19T01:54:50.418Z,32.20
2018-12-19T01:57:25.046Z,35.30
2018-12-19T01:59:59.846Z,34.27
2018-12-19T02:02:34.580Z,35.10
2018-12-19T02:05:09.331Z,34.37
2018-12-19T02:07:44.204Z,30.83
2018-12-19T02:10:19.079Z,31.33
2018-12-19T02:12:54.116Z,29.53
2018-12-19T02:15:28.849Z,31.67
2018-12-19T02:18:03.675Z,31.97
2018-12-19T02:20:38.505Z,33.77
2018-12-19T02:23:13.156Z,29.43
2018-12-19T02:25:48.022Z,29.53
2018-12-19T02:28:22.896Z,29.07
2018-12-19T02:30:57.587Z,32.13
2018-12-19T02:33:32.371Z,30.53
2018-12-19T02:36:07.212Z,31.00
2018-12-19T02:38:42.026Z,32.87
2018-12-19T02:41:16.702Z,34.60
2018-12-19T02:43:51.448Z,32.93
2018-12-19T02:46:26.324Z,30.73
2018-12-19T02:49:01.145Z,34.67
2018-12-19T02:51:35.845Z,33.27
2018-12-19T02:54:10.628Z,35.47
2018-12-19T02:56:45.449Z,35.33
2018-12-19T02:59:20.283Z,33.10
2018-12-19T03:01:55.334Z,36.30
2018-12-19T03:04:30.004Z,39.20
2018-12-19T03:07:04.880Z,33.53
2018-12-19T03:09:42.999Z,35.67
2018-12-19T03:12:16.499Z,37.10
2018-12-19T03:14:51.399Z,35.83
2018-12-19T03:17:26.151Z,35.87
2018-12-19T03:20:00.999Z,38.50
2018-12-19T03:22:35.913Z,34.13
2018-12-19T03:25:10.716Z,34.27
2018-12-19T03:27:45.572Z,34.27
2018-12-19T03:30:20.304Z,34.90
2018-12-19T03:32:55.088Z,36.83
2018-12-19T03:35:29.915Z,34.27
2018-12-19T03:38:04.619Z,32.43
2018-12-19T03:40:39.288Z,34.43
2018-12-19T03:43:14.087Z,33.23
2018-12-19T03:45:48.940Z,33.13
2018-12-19T03:48:28.956Z,32.13
2018-12-19T03:51:03.865Z,31.93
2018-12-19T03:53:38.594Z,31.70
2018-12-19T03:56:13.337Z,27.87
2018-12-19T03:58:48.211Z,28.37
2018-12-19T04:01:22.793Z,31.07
2018-12-19T04:03:57.733Z,28.80
2018-12-19T04:06:32.442Z,31.83
2018-12-19T04:09:07.788Z,29.73
2018-12-19T04:11:42.508Z,32.43
2018-12-19T04:14:17.305Z,30.63
2018-12-19T04:16:52.093Z,33.57
2018-12-19T04:19:26.745Z,29.73
2018-12-19T04:22:01.363Z,31.20
2018-12-19T04:24:35.919Z,32.23
2018-12-19T04:27:10.693Z,29.67
2018-12-19T04:29:45.733Z,32.50
2018-12-19T04:32:20.691Z,32.83
2018-12-19T04:34:55.360Z,34.23
2018-12-19T04:37:29.973Z,32.47
2018-12-19T04:40:06.066Z,30.90
2018-12-19T04:42:41.163Z,31.23
2018-12-19T04:45:15.962Z,28.80
2018-12-19T04:47:50.808Z,31.03
2018-12-19T04:50:25.570Z,34.33
2018-12-19T04:53:00.308Z,29.70
2018-12-19T04:55:35.094Z,33.73
2018-12-19T04:58:09.896Z,31.77
2018-12-19T05:00:44.658Z,29.53
2018-12-19T05:03:19.545Z,31.93
2018-12-19T05:05:54.761Z,29.93
2018-12-19T05:08:29.611Z,33.47
2018-12-19T05:11:04.475Z,30.83
2018-12-19T05:13:39.307Z,31.93
2018-12-19T05:16:14.149Z,27.43
2018-12-19T05:18:49.083Z,28.80
2018-12-19T05:21:23.978Z,36.17
2018-12-19T05:23:58.866Z,29.40
2018-12-19T05:26:33.611Z,31.07
2018-12-19T05:29:08.405Z,34.53
2018-12-19T05:31:43.238Z,35.07
2018-12-19T05:34:18.086Z,35.77
2018-12-19T05:36:52.849Z,31.00
2018-12-19T05:39:27.539Z,30.70
2018-12-19T05:42:02.313Z,30.33
2018-12-19T05:44:37.229Z,30.27
2018-12-19T05:47:12.442Z,29.70
2018-12-19T05:49:47.716Z,32.33
2018-12-19T05:52:25.069Z,30.57
2018-12-19T05:55:00.163Z,28.80
2018-12-19T05:57:35.117Z,27.93
2018-12-19T06:00:09.989Z,28.73
2018-12-19T06:02:44.809Z,28.50
2018-12-19T06:05:19.640Z,28.53
2018-12-19T06:07:54.292Z,27.07
2018-12-19T06:10:29.128Z,28.30
2018-12-19T06:13:03.938Z,25.00
2018-12-19T06:15:38.663Z,26.80
2018-12-19T06:18:13.389Z,26.63
2018-12-19T06:20:48.251Z,29.93
2018-12-19T06:23:22.843Z,25.77
2018-12-19T06:25:57.804Z,27.27
2018-12-19T06:28:32.758Z,24.80
2018-12-19T06:31:07.494Z,25.27
2018-12-19T06:33:42.704Z,23.60
2018-12-19T06:36:17.905Z,26.87
2018-12-19T06:38:52.668Z,24.33
2018-12-19T06:41:27.343Z,26.93
2018-12-19T06:44:02.337Z,28.20
2018-12-19T06:46:36.960Z,30.43
2018-12-19T06:49:11.729Z,25.33
2018-12-19T06:51:46.373Z,26.60
2018-12-19T06:54:27.679Z,24.83
2018-12-19T06:57:02.541Z,26.67
2018-12-19T06:59:37.314Z,26.17
2018-12-19T07:02:12.114Z,25.37
2018-12-19T07:04:46.900Z,28.37
2018-12-19T07:07:21.802Z,27.80
2018-12-19T07:09:56.528Z,25.37
2018-12-19T07:12:31.193Z,24.40
2018-12-19T07:15:06.553Z,23.27
2018-12-19T07:17:41.549Z,27.20
2018-12-19T07:20:16.330Z,25.97
2018-12-19T07:22:51.312Z,24.30
2018-12-19T07:25:26.139Z,26.97
2018-12-19T07:28:00.980Z,26.50
2018-12-19T07:30:35.849Z,22.37
2018-12-19T07:33:10.716Z,25.30
2018-12-19T07:35:45.625Z,26.53
2018-12-19T07:38:20.497Z,25.87
2018-12-19T07:40:55.146Z,23.90
2018-12-19T07:43:30.094Z,22.30
2018-12-19T07:46:05.422Z,25.17
2018-12-19T07:48:40.559Z,28.67
2018-12-19T07:51:15.384Z,26.60
2018-12-19T07:53:50.295Z,24.50
2018-12-19T07:56:25.267Z,28.50
2018-12-19T07:59:00.095Z,24.23
2018-12-19T08:01:34.798Z,24.03
2018-12-19T08:04:09.567Z,25.60
2018-12-19T08:06:44.290Z,25.10
2018-12-19T08:09:19.254Z,25.77
2018-12-19T08:11:53.996Z,24.57
2018-12-19T08:14:28.826Z,24.33
2018-12-19T08:17:03.552Z,27.57
2018-12-19T08:19:38.343Z,22.73
2018-12-19T08:22:13.112Z,24.60
2018-12-19T08:24:47.872Z,24.63
2018-12-19T08:27:22.697Z,24.43
2018-12-19T08:29:57.690Z,23.27
2018-12-19T08:32:32.478Z,22.03
2018-12-19T08:35:07.559Z,21.83
2018-12-19T08:37:42.140Z,23.60
2018-12-19T08:40:17.234Z,25.53
2018-12-19T08:42:52.267Z,24.70
2018-12-19T08:45:27.372Z,26.27
2018-12-19T08:48:02.042Z,26.87
2018-12-19T08:50:36.691Z,26.67
2018-12-19T08:53:11.527Z,23.60
2018-12-19T08:55:46.354Z,25.13
2018-12-19T08:58:21.187Z,22.40
2018-12-19T09:00:56.013Z,25.17
2018-12-19T09:03:30.805Z,23.83
2018-12-19T09:06:05.711Z,26.77
2018-12-19T09:08:40.526Z,27.63
2018-12-19T09:11:15.426Z,27.07
2018-12-19T09:13:50.195Z,28.30
2018-12-19T09:16:24.946Z,28.50
2018-12-19T09:18:59.792Z,28.20
2018-12-19T09:21:34.728Z,26.43
2018-12-19T09:24:10.038Z,29.23
2018-12-19T09:26:44.785Z,27.73
2018-12-19T09:29:19.557Z,28.83
2018-12-19T09:31:54.401Z,29.57
2018-12-19T09:34:29.293Z,27.70
2018-12-19T09:37:04.328Z,27.10
2018-12-19T09:39:39.171Z,32.07
2018-12-19T09:42:13.964Z,28.77
2018-12-19T09:44:48.664Z,30.03
2018-12-19T09:47:23.400Z,30.70
2018-12-19T09:49:58.143Z,25.30
2018-12-19T09:52:32.940Z,25.60
2018-12-19T09:55:07.736Z,28.27
2018-12-19T09:57:42.807Z,27.17
2018-12-19T10:00:23.023Z,25.47
2018-12-19T10:02:57.831Z,35.03
2018-12-19T10:05:32.716Z,28.30
2018-12-19T10:08:07.428Z,27.10
2018-12-19T10:10:42.376Z,26.40
2018-12-19T10:13:17.243Z,28.60
2018-12-19T10:15:51.928Z,31.77
2018-12-19T10:18:26.592Z,32.27
2018-12-19T10:21:01.429Z,36.90
2018-12-19T10:23:36.261Z,37.90
2018-12-19T10:26:13.892Z,35.57
2018-12-19T10:28:48.589Z,34.10
2018-12-19T10:31:23.429Z,32.07
2018-12-19T10:33:58.277Z,38.97
2018-12-19T10:36:37.795Z,40.30
2018-12-19T10:39:17.409Z,38.33
2018-12-19T10:41:52.357Z,36.70
2018-12-19T10:44:27.038Z,36.83
2018-12-19T10:47:01.932Z,42.10
2018-12-19T10:49:36.824Z,39.60
2018-12-19T10:52:12.836Z,39.13
2018-12-19T10:54:47.602Z,38.17
2018-12-19T10:57:22.578Z,30.83
2018-12-19T10:59:58.273Z,42.40
2018-12-19T11:02:32.944Z,36.03
2018-12-19T11:05:07.667Z,40.67
2018-12-19T11:07:42.531Z,42.67
2018-12-19T11:10:17.636Z,39.27
2018-12-19T11:12:52.399Z,39.23
2018-12-19T11:15:27.233Z,37.77
2018-12-19T11:18:01.906Z,36.37
2018-12-19T11:20:36.824Z,37.70
2018-12-19T11:23:11.649Z,33.20
2018-12-19T11:25:46.474Z,34.67
2018-12-19T11:28:21.372Z,35.50
2018-12-19T11:30:56.272Z,31.07
2018-12-19T11:33:31.132Z,32.17
2018-12-19T11:36:05.986Z,31.60
2018-12-19T11:38:40.882Z,30.83
2018-12-19T11:41:16.195Z,31.40
2018-12-19T11:43:50.791Z,28.40
2018-12-19T11:46:25.573Z,24.27
2018-12-19T11:49:00.337Z,18.20
2018-12-19T11:51:35.142Z,24.07
2018-12-19T11:54:10.002Z,26.57
2018-12-19T11:56:44.898Z,18.90
2018-12-19T11:59:19.704Z,19.13
2018-12-19T12:01:54.335Z,25.40
2018-12-19T12:04:29.148Z,30.97
2018-12-19T12:07:04.396Z,33.50
2018-12-19T12:09:39.340Z,34.57
2018-12-19T12:12:14.060Z,32.97
2018-12-19T12:14:48.828Z,40.93
2018-12-19T12:17:23.672Z,35.50
2018-12-19T12:19:58.470Z,37.37
2018-12-19T12:22:33.087Z,37.57
2018-12-19T12:25:08.265Z,41.20
2018-12-19T12:27:42.911Z,41.23
2018-12-19T12:30:18.633Z,37.63
2018-12-19T12:32:53.562Z,35.30
2018-12-19T12:35:28.291Z,36.73
2018-12-19T12:38:03.151Z,35.60
2018-12-19T12:40:38.050Z,38.33
2018-12-19T12:43:13.000Z,38.50
2018-12-19T12:45:47.756Z,38.10
2018-12-19T12:48:22.682Z,38.60
2018-12-19T12:50:57.483Z,38.50
2018-12-19T12:53:32.408Z,38.60
2018-12-19T12:56:07.194Z,36.43
2018-12-19T12:58:42.144Z,31.77
2018-12-19T13:01:16.804Z,35.07
2018-12-19T13:03:51.672Z,33.00
2018-12-19T13:06:26.315Z,32.17
2018-12-19T13:09:01.031Z,37.57
2018-12-19T13:11:35.832Z,31.83
2018-12-19T13:14:10.507Z,33.90
2018-12-19T13:16:45.367Z,35.60
2018-12-19T13:19:20.229Z,32.67
2018-12-19T13:21:55.232Z,35.60
2018-12-19T13:24:30.008Z,37.90
2018-12-19T13:27:04.924Z,37.97
2018-12-19T13:29:39.892Z,39.37
2018-12-19T13:32:14.905Z,36.13
2018-12-19T13:34:49.687Z,33.97
2018-12-19T13:37:24.879Z,33.33
2018-12-19T13:39:59.729Z,37.13
2018-12-19T13:42:34.622Z,36.77
2018-12-19T13:45:09.394Z,37.33
2018-12-19T13:47:44.066Z,36.37
2018-12-19T13:50:18.999Z,36.03
2018-12-19T13:52:53.710Z,44.60
2018-12-19T13:55:30.496Z,42.13
2018-12-19T13:58:07.103Z,38.07
2018-12-19T14:00:42.226Z,40.43
2018-12-19T14:03:16.987Z,37.17
2018-12-19T14:05:51.597Z,41.30
2018-12-19T14:08:26.912Z,39.23
2018-12-19T14:11:01.778Z,35.67
2018-12-19T14:13:36.501Z,35.70
2018-12-19T14:16:11.337Z,39.63
2018-12-19T14:18:46.160Z,35.90
2018-12-19T14:21:20.776Z,36.20
2018-12-19T14:23:55.428Z,33.20
2018-12-19T14:26:30.128Z,33.53
2018-12-19T14:29:04.984Z,31.60
2018-12-19T14:31:39.808Z,33.87
2018-12-19T14:34:14.641Z,34.10
2018-12-19T14:36:49.386Z,33.00
2018-12-19T14:39:24.344Z,29.87
2018-12-19T14:41:59.075Z,32.90
2018-12-19T14:44:33.703Z,38.13
2018-12-19T14:47:08.535Z,37.27
2018-12-19T14:49:43.417Z,34.13
2018-12-19T14:52:18.387Z,45.47
2018-12-19T14:54:53.321Z,37.70
2018-12-19T14:57:28.803Z,36.47
2018-12-19T15:00:04.051Z,39.23
2018-12-19T15:02:38.910Z,34.67
2018-12-19T15:05:13.867Z,32.27
2018-12-19T15:07:48.662Z,32.83
2018-12-19T15:10:27.295Z,32.20
2018-12-19T15:13:01.929Z,37.10
2018-12-19T15:15:36.749Z,35.13
2018-12-19T15:18:11.495Z,37.27
2018-12-19T15:20:46.321Z,38.50
2018-12-19T15:23:21.069Z,40.67
2018-12-19T15:25:56.022Z,41.90
2018-12-19T15:28:31.321Z,40.13
2018-12-19T15:31:05.982Z,37.10
2018-12-19T15:33:41.044Z,35.57
2018-12-19T15:36:16.160Z,39.47
2018-12-19T15:38:51.014Z,38.57
2018-12-19T15:41:25.874Z,36.40
2018-12-19T15:44:00.810Z,42.07
2018-12-19T15:46:35.549Z,37.70
2018-12-19T15:49:10.357Z,39.03
2018-12-19T15:51:52.642Z,39.77
2018-12-19T15:54:27.474Z,36.53
2018-12-19T15:57:02.191Z,37.40
2018-12-19T15:59:36.962Z,39.87
2018-12-19T16:02:11.855Z,39.53
2018-12-19T16:04:46.716Z,38.00
2018-12-19T16:07:21.475Z,43.87
2018-12-19T16:09:56.361Z,43.63
2018-12-19T16:12:31.690Z,38.60
2018-12-19T16:15:06.692Z,37.53
2018-12-19T16:17:41.397Z,38.93
2018-12-19T16:20:16.393Z,38.03
2018-12-19T16:22:51.349Z,39.10
2018-12-19T16:25:26.156Z,39.33
2018-12-19T16:28:00.986Z,36.03
2018-12-19T16:30:35.922Z,39.47
2018-12-19T16:33:10.646Z,31.30
2018-12-19T16:35:45.294Z,40.70
2018-12-19T16:38:20.119Z,28.47
2018-12-19T16:40:54.909Z,29.93
2018-12-19T16:43:29.591Z,33.07
2018-12-19T16:46:04.335Z,28.10
2018-12-19T16:48:39.286Z,36.87
2018-12-19T16:51:13.929Z,32.63
2018-12-19T16:53:48.630Z,27.33
2018-12-19T16:56:23.312Z,28.47
2018-12-19T16:58:58.199Z,26.87
2018-12-19T17:01:33.766Z,23.53
2018-12-19T17:04:08.615Z,24.87
2018-12-19T17:06:43.529Z,22.53
2018-12-19T17:09:18.260Z,19.90
2018-12-19T17:11:53.065Z,21.03
2018-12-19T17:14:27.987Z,22.73
2018-12-19T17:17:02.704Z,18.77
2018-12-19T17:19:37.702Z,14.83
2018-12-19T17:22:15.686Z,17.50
2018-12-19T17:24:50.423Z,14.93
2018-12-19T17:27:25.242Z,15.67
2018-12-19T17:29:59.867Z,14.10
2018-12-19T17:32:35.291Z,14.80
2018-12-19T17:35:09.883Z,16.13
2018-12-19T17:37:44.586Z,9.10
2018-12-19T17:40:19.207Z,8.87
2018-12-19T17:42:59.428Z,11.20
2018-12-19T17:45:30.557Z,8.73
2018-12-19T17:48:05.343Z,9.97
2018-12-19T17:50:39.943Z,11.53
2018-12-19T17:53:14.670Z,10.07
2018-12-19T17:55:49.416Z,8.23
2018-12-19T17:58:24.096Z,9.20
2018-12-19T18:00:58.739Z,9.23
2018-12-19T18:03:33.360Z,8.50
2018-12-19T18:06:07.995Z,8.93
2018-12-19T18:08:42.643Z,13.87
2018-12-19T18:11:17.179Z,8.80
2018-12-19T18:13:52.069Z,9.60
2018-12-19T18:16:26.805Z,10.27
2018-12-19T18:19:01.529Z,10.50
2018-12-19T18:21:36.203Z,11.23
2018-12-19T18:24:11.040Z,11.93
2018-12-19T18:26:45.819Z,10.53
2018-12-19T18:29:20.455Z,13.07
2018-12-19T18:31:55.157Z,11.10
2018-12-19T18:34:29.896Z,12.63
2018-12-19T18:37:04.845Z,9.53
2018-12-19T18:39:39.772Z,11.07
2018-12-19T18:42:14.443Z,9.83
2018-12-19T18:44:49.150Z,11.40
2018-12-19T18:47:30.534Z,10.33
2018-12-19T18:50:05.661Z,11.67
2018-12-19T18:52:40.833Z,12.07
2018-12-19T18:55:15.430Z,12.57
2018-12-19T18:57:51.287Z,11.60
2018-12-19T19:00:31.396Z,12.67
2018-12-19T19:03:06.194Z,11.13
2018-12-19T19:05:41.455Z,11.67
2018-12-19T19:08:16.208Z,10.67
2018-12-19T19:10:50.891Z,12.93
2018-12-19T19:13:25.518Z,11.90
2018-12-19T19:16:00.212Z,14.03
2018-12-19T19:18:35.363Z,13.23
2018-12-19T19:21:10.131Z,13.50
2018-12-19T19:23:44.983Z,14.57
2018-12-19T19:26:19.769Z,12.90
2018-12-19T19:28:54.585Z,9.67
2018-12-19T19:31:29.391Z,12.23
2018-12-19T19:34:04.343Z,16.30
2018-12-19T19:36:39.383Z,16.53
2018-12-19T19:39:13.984Z,21.87
2018-12-19T19:41:48.625Z,13.33
2018-12-19T19:44:23.432Z,11.63
2018-12-19T19:46:58.053Z,15.67
2018-12-19T19:49:32.849Z,11.83
2018-12-19T19:52:07.797Z,10.20
2018-12-19T19:54:42.737Z,9.30
2018-12-19T19:57:17.563Z,11.13
2018-12-19T19:59:52.285Z,12.50
2018-12-19T20:02:27.015Z,10.17
2018-12-19T20:05:01.606Z,10.97
2018-12-19T20:07:36.516Z,11.50
2018-12-19T20:10:11.306Z,11.47
2018-12-19T20:12:46.074Z,10.77
2018-12-19T20:15:20.691Z,11.67
2018-12-19T20:17:55.616Z,14.00
2018-12-19T20:20:30.485Z,12.17
2018-12-19T20:23:05.253Z,13.47
2018-12-19T20:25:39.986Z,17.20
2018-12-19T20:28:14.806Z,14.80
2018-12-19T20:30:49.485Z,10.93
2018-12-19T20:33:24.152Z,14.53
2018-12-19T20:35:58.889Z,18.23
2018-12-19T20:38:34.297Z,23.90
2018-12-19T20:41:09.059Z,14.30
2018-12-19T20:43:43.617Z,12.83
2018-12-19T20:46:18.135Z,18.73
2018-12-19T20:48:52.803Z,14.53
2018-12-19T20:51:27.509Z,14.67
2018-12-19T20:54:02.314Z,12.87
2018-12-19T20:56:37.545Z,13.40
2018-12-19T20:59:12.466Z,13.97
2018-12-19T21:01:47.333Z,15.73
2018-12-19T21:04:22.016Z,23.03
2018-12-19T21:06:56.838Z,20.20
2018-12-19T21:09:31.621Z,18.93
2018-12-19T21:12:06.360Z,19.93
2018-12-19T21:14:40.933Z,16.87
2018-12-19T21:17:21.087Z,21.23
2018-12-19T21:19:55.910Z,18.70
2018-12-19T21:22:30.626Z,18.40
2018-12-19T21:25:05.586Z,15.80
2018-12-19T21:27:40.259Z,19.33
2018-12-19T21:30:15.238Z,16.93
2018-12-19T21:32:49.932Z,22.63
2018-12-19T21:35:24.901Z,21.00
2018-12-19T21:38:00.463Z,20.17
2018-12-19T21:40:35.239Z,32.20
2018-12-19T21:43:09.811Z,27.70
2018-12-19T21:45:51.614Z,33.67
2018-12-19T21:48:21.456Z,26.00
2018-12-19T21:50:56.371Z,25.27
2018-12-19T21:53:31.238Z,26.97
2018-12-19T21:56:06.226Z,26.30
2018-12-19T21:58:41.042Z,22.43
2018-12-19T22:01:16.169Z,25.93
2018-12-19T22:03:50.888Z,24.60
2018-12-19T22:06:25.787Z,28.87
2018-12-19T22:09:00.694Z,15.80
2018-12-19T22:11:35.621Z,10.23
2018-12-19T22:14:10.521Z,15.43
2018-12-19T22:16:50.806Z,14.43
2018-12-19T22:19:25.495Z,11.97
2018-12-19T22:22:00.413Z,12.37
2018-12-19T22:24:35.336Z,11.47
2018-12-19T22:27:10.124Z,8.50
2018-12-19T22:29:44.898Z,8.33
2018-12-19T22:32:19.640Z,7.83
2018-12-19T22:34:54.688Z,6.57
2018-12-19T22:37:29.624Z,7.87
2018-12-19T22:40:04.696Z,9.03
2018-12-19T22:42:39.685Z,10.53
2018-12-19T22:45:14.571Z,11.13
2018-12-19T22:47:49.573Z,11.13
2018-12-19T22:50:24.221Z,16.37
2018-12-19T22:53:05.486Z,13.47
2018-12-19T22:55:40.670Z,11.53
2018-12-19T22:58:15.457Z,13.37
2018-12-19T23:00:56.474Z,15.60
2018-12-19T23:03:38.166Z,15.67
2018-12-19T23:06:13.009Z,15.47
2018-12-19T23:08:47.866Z,18.23
2018-12-19T23:11:22.793Z,17.40
2018-12-19T23:13:57.565Z,18.03
2018-12-19T23:16:32.724Z,19.10
2018-12-19T23:19:07.982Z,21.53
2018-12-19T23:21:42.805Z,16.80
2018-12-19T23:24:17.644Z,16.20
2018-12-19T23:26:52.608Z,18.07
2018-12-19T23:29:27.382Z,21.27
2018-12-19T23:32:02.320Z,20.70
2018-12-19T23:34:36.995Z,19.60
2018-12-19T23:37:11.840Z,21.67
2018-12-19T23:39:46.686Z,21.73
2018-12-19T23:42:21.591Z,21.20
2018-12-19T23:44:56.758Z,20.83
2018-12-19T23:47:31.662Z,20.50
2018-12-19T23:50:06.523Z,19.40
2018-12-19T23:52:41.306Z,23.63
2018-12-19T23:55:16.068Z,22.07
2018-12-19T23:57:50.907Z,22.93
